sensor_id;sensor_type;location;lat;lon;timestamp;pressure;altitude;pressure_sealevel;temperature;humidity
71716;BME280;59568;52.128;5.434;2024-01-27T00:00:18;103609.66;;;0.55;100.00
71716;BME280;59568;52.128;5.434;2024-01-27T00:02:45;103615.06;;;0.52;100.00
71716;BME280;59568;52.128;5.434;2024-01-27T00:05:12;103610.25;;;0.49;100.00
71716;BME280;59568;52.128;5.434;2024-01-27T00:07:39;103617.78;;;0.50;100.00
71716;BME280;59568;52.128;5.434;2024-01-27T00:10:07;103620.22;;;0.52;100.00
71716;BME280;59568;52.128;5.434;2024-01-27T00:12:34;103612.50;;;0.52;100.00
71716;BME280;59568;52.128;5.434;2024-01-27T00:15:01;103611.56;;;0.53;100.00
71716;BME280;59568;52.128;5.434;2024-01-27T00:17:28;103625.38;;;0.52;100.00
71716;BME280;59568;52.128;5.434;2024-01-27T00:19:55;103622.66;;;0.53;100.00
71716;BME280;59568;52.128;5.434;2024-01-27T00:22:21;103614.78;;;0.55;100.00
71716;BME280;59568;52.128;5.434;2024-01-27T00:24:48;103621.19;;;0.51;100.00
71716;BME280;59568;52.128;5.434;2024-01-27T00:27:15;103617.00;;;0.50;100.00
71716;BME280;59568;52.128;5.434;2024-01-27T00:29:43;103620.53;;;0.49;100.00
71716;BME280;59568;52.128;5.434;2024-01-27T00:32:10;103624.34;;;0.45;100.00
71716;BME280;59568;52.128;5.434;2024-01-27T00:34:37;103629.78;;;0.42;100.00
71716;BME280;59568;52.128;5.434;2024-01-27T00:37:04;103618.19;;;0.37;100.00
71716;BME280;59568;52.128;5.434;2024-01-27T00:39:31;103621.06;;;0.34;100.00
71716;BME280;59568;52.128;5.434;2024-01-27T00:41:59;103620.41;;;0.32;100.00
71716;BME280;59568;52.128;5.434;2024-01-27T00:44:26;103617.16;;;0.30;100.00
71716;BME280;59568;52.128;5.434;2024-01-27T00:46:53;103610.53;;;0.28;100.00
71716;BME280;59568;52.128;5.434;2024-01-27T00:49:20;103619.09;;;0.28;100.00
71716;BME280;59568;52.128;5.434;2024-01-27T00:51:47;103602.03;;;0.27;100.00
71716;BME280;59568;52.128;5.434;2024-01-27T00:54:14;103613.25;;;0.26;100.00
71716;BME280;59568;52.128;5.434;2024-01-27T00:56:41;103613.41;;;0.25;100.00
71716;BME280;59568;52.128;5.434;2024-01-27T00:59:08;103616.13;;;0.23;100.00
71716;BME280;59568;52.128;5.434;2024-01-27T01:01:35;103619.63;;;0.22;100.00
71716;BME280;59568;52.128;5.434;2024-01-27T01:04:02;103621.56;;;0.20;100.00
71716;BME280;59568;52.128;5.434;2024-01-27T01:06:29;103624.44;;;0.17;100.00
71716;BME280;59568;52.128;5.434;2024-01-27T01:08:56;103620.53;;;0.13;100.00
71716;BME280;59568;52.128;5.434;2024-01-27T01:11:23;103621.47;;;0.12;100.00
71716;BME280;59568;52.128;5.434;2024-01-27T01:13:50;103624.72;;;0.14;100.00
71716;BME280;59568;52.128;5.434;2024-01-27T01:16:17;103630.81;;;0.13;100.00
71716;BME280;59568;52.128;5.434;2024-01-27T01:18:44;103631.09;;;0.10;100.00
71716;BME280;59568;52.128;5.434;2024-01-27T01:21:11;103638.16;;;0.08;100.00
71716;BME280;59568;52.128;5.434;2024-01-27T01:23:38;103640.88;;;0.06;100.00
71716;BME280;59568;52.128;5.434;2024-01-27T01:26:05;103632.53;;;0.04;100.00
71716;BME280;59568;52.128;5.434;2024-01-27T01:28:32;103638.72;;;0.02;100.00
71716;BME280;59568;52.128;5.434;2024-01-27T01:30:59;103629.56;;;-0.01;100.00
71716;BME280;59568;52.128;5.434;2024-01-27T01:33:26;103630.34;;;-0.01;100.00
71716;BME280;59568;52.128;5.434;2024-01-27T01:35:53;103618.16;;;0.02;100.00
71716;BME280;59568;52.128;5.434;2024-01-27T01:38:20;103618.84;;;0.04;100.00
71716;BME280;59568;52.128;5.434;2024-01-27T01:40:47;103623.16;;;0.03;100.00
71716;BME280;59568;52.128;5.434;2024-01-27T01:43:14;103623.03;;;0.05;100.00
71716;BME280;59568;52.128;5.434;2024-01-27T01:45:41;103619.50;;;0.06;100.00
71716;BME280;59568;52.128;5.434;2024-01-27T01:48:08;103624.63;;;0.06;100.00
71716;BME280;59568;52.128;5.434;2024-01-27T01:50:36;103631.41;;;0.07;100.00
71716;BME280;59568;52.128;5.434;2024-01-27T01:53:04;103628.19;;;0.05;100.00
71716;BME280;59568;52.128;5.434;2024-01-27T01:55:32;103635.22;;;0.03;100.00
71716;BME280;59568;52.128;5.434;2024-01-27T01:57:59;103641.31;;;0.02;100.00
71716;BME280;59568;52.128;5.434;2024-01-27T02:00:26;103642.28;;;0.01;100.00
71716;BME280;59568;52.128;5.434;2024-01-27T02:02:53;103646.88;;;-0.03;100.00
71716;BME280;59568;52.128;5.434;2024-01-27T02:05:20;103641.22;;;-0.07;100.00
71716;BME280;59568;52.128;5.434;2024-01-27T02:07:47;103637.19;;;-0.09;100.00
71716;BME280;59568;52.128;5.434;2024-01-27T02:10:15;103636.53;;;-0.11;100.00
71716;BME280;59568;52.128;5.434;2024-01-27T02:12:45;103635.84;;;-0.13;100.00
71716;BME280;59568;52.128;5.434;2024-01-27T02:15:13;103625.72;;;-0.15;100.00
71716;BME280;59568;52.128;5.434;2024-01-27T02:17:41;103644.81;;;-0.17;100.00
71716;BME280;59568;52.128;5.434;2024-01-27T02:20:09;103636.97;;;-0.16;100.00
71716;BME280;59568;52.128;5.434;2024-01-27T02:22:36;103638.88;;;-0.18;100.00
71716;BME280;59568;52.128;5.434;2024-01-27T02:25:04;103632.91;;;-0.18;100.00
71716;BME280;59568;52.128;5.434;2024-01-27T02:27:31;103623.44;;;-0.18;100.00
71716;BME280;59568;52.128;5.434;2024-01-27T02:29:58;103626.97;;;-0.19;100.00
71716;BME280;59568;52.128;5.434;2024-01-27T02:32:25;103638.22;;;-0.20;100.00
71716;BME280;59568;52.128;5.434;2024-01-27T02:34:51;103636.44;;;-0.19;100.00
71716;BME280;59568;52.128;5.434;2024-01-27T02:37:18;103627.94;;;-0.20;100.00
71716;BME280;59568;52.128;5.434;2024-01-27T02:39:46;103628.88;;;-0.21;100.00
71716;BME280;59568;52.128;5.434;2024-01-27T02:42:13;103628.88;;;-0.21;100.00
71716;BME280;59568;52.128;5.434;2024-01-27T02:44:40;103632.41;;;-0.22;100.00
71716;BME280;59568;52.128;5.434;2024-01-27T02:47:07;103632.69;;;-0.25;100.00
71716;BME280;59568;52.128;5.434;2024-01-27T02:49:34;103639.72;;;-0.27;100.00
71716;BME280;59568;52.128;5.434;2024-01-27T02:52:01;103656.91;;;-0.28;100.00
71716;BME280;59568;52.128;5.434;2024-01-27T02:54:28;103651.09;;;-0.30;100.00
71716;BME280;59568;52.128;5.434;2024-01-27T02:56:55;103656.06;;;-0.28;100.00
71716;BME280;59568;52.128;5.434;2024-01-27T02:59:22;103646.91;;;-0.31;100.00
71716;BME280;59568;52.128;5.434;2024-01-27T03:01:49;103645.13;;;-0.30;100.00
71716;BME280;59568;52.128;5.434;2024-01-27T03:04:16;103643.41;;;-0.30;100.00
71716;BME280;59568;52.128;5.434;2024-01-27T03:06:43;103651.91;;;-0.29;100.00
71716;BME280;59568;52.128;5.434;2024-01-27T03:09:11;103650.94;;;-0.28;100.00
71716;BME280;59568;52.128;5.434;2024-01-27T03:11:38;103644.84;;;-0.27;100.00
71716;BME280;59568;52.128;5.434;2024-01-27T03:14:05;103653.50;;;-0.28;100.00
71716;BME280;59568;52.128;5.434;2024-01-27T03:16:32;103651.91;;;-0.29;100.00
71716;BME280;59568;52.128;5.434;2024-01-27T03:18:59;103648.66;;;-0.31;100.00
71716;BME280;59568;52.128;5.434;2024-01-27T03:21:27;103653.50;;;-0.28;100.00
71716;BME280;59568;52.128;5.434;2024-01-27T03:23:54;103651.47;;;-0.25;100.00
71716;BME280;59568;52.128;5.434;2024-01-27T03:26:21;103643.75;;;-0.25;100.00
71716;BME280;59568;52.128;5.434;2024-01-27T03:28:48;103636.72;;;-0.23;100.00
71716;BME280;59568;52.128;5.434;2024-01-27T03:31:15;103641.59;;;-0.19;100.00
71716;BME280;59568;52.128;5.434;2024-01-27T03:33:42;103642.09;;;-0.16;100.00
71716;BME280;59568;52.128;5.434;2024-01-27T03:36:10;103641.00;;;-0.13;100.00
71716;BME280;59568;52.128;5.434;2024-01-27T03:38:41;103634.75;;;-0.11;100.00
71716;BME280;59568;52.128;5.434;2024-01-27T03:41:08;103632.06;;;-0.09;100.00
71716;BME280;59568;52.128;5.434;2024-01-27T03:43:35;103637.31;;;-0.11;100.00
71716;BME280;59568;52.128;5.434;2024-01-27T03:46:02;103650.19;;;-0.11;100.00
71716;BME280;59568;52.128;5.434;2024-01-27T03:48:29;103642.34;;;-0.09;100.00
71716;BME280;59568;52.128;5.434;2024-01-27T03:50:57;103643.13;;;-0.09;100.00
71716;BME280;59568;52.128;5.434;2024-01-27T03:53:24;103645.56;;;-0.07;100.00
71716;BME280;59568;52.128;5.434;2024-01-27T03:55:51;103652.97;;;-0.04;100.00
71716;BME280;59568;52.128;5.434;2024-01-27T03:58:18;103649.59;;;-0.05;100.00
71716;BME280;59568;52.128;5.434;2024-01-27T04:00:45;103649.59;;;-0.05;100.00
71716;BME280;59568;52.128;5.434;2024-01-27T04:03:13;103658.28;;;-0.06;100.00
71716;BME280;59568;52.128;5.434;2024-01-27T04:05:40;103658.94;;;-0.04;100.00
71716;BME280;59568;52.128;5.434;2024-01-27T04:08:07;103654.47;;;-0.02;100.00
71716;BME280;59568;52.128;5.434;2024-01-27T04:10:34;103654.47;;;-0.02;100.00
71716;BME280;59568;52.128;5.434;2024-01-27T04:13:01;103654.47;;;-0.02;100.00
71716;BME280;59568;52.128;5.434;2024-01-27T04:15:28;103662.31;;;-0.03;100.00
71716;BME280;59568;52.128;5.434;2024-01-27T04:17:55;103663.41;;;-0.06;100.00
71716;BME280;59568;52.128;5.434;2024-01-27T04:20:23;103662.59;;;-0.06;100.00
71716;BME280;59568;52.128;5.434;2024-01-27T04:22:50;103654.88;;;-0.06;100.00
71716;BME280;59568;52.128;5.434;2024-01-27T04:25:17;103646.38;;;-0.07;100.00
71716;BME280;59568;52.128;5.434;2024-01-27T04:27:43;103651.22;;;-0.04;100.00
71716;BME280;59568;52.128;5.434;2024-01-27T04:30:11;103661.50;;;-0.04;100.00
71716;BME280;59568;52.128;5.434;2024-01-27T04:32:39;103664.22;;;-0.05;100.00
71716;BME280;59568;52.128;5.434;2024-01-27T04:35:10;103667.91;;;-0.08;100.00
71716;BME280;59568;52.128;5.434;2024-01-27T04:37:38;103678.59;;;-0.12;100.00
71716;BME280;59568;52.128;5.434;2024-01-27T04:40:05;103675.50;;;-0.16;100.00
71716;BME280;59568;52.128;5.434;2024-01-27T04:42:37;103677.69;;;-0.21;100.00
71716;BME280;59568;52.128;5.434;2024-01-27T04:45:05;103672.69;;;-0.23;100.00
71716;BME280;59568;52.128;5.434;2024-01-27T04:47:33;103676.22;;;-0.24;100.00
71716;BME280;59568;52.128;5.434;2024-01-27T04:50:00;103672.84;;;-0.24;100.00
71716;BME280;59568;52.128;5.434;2024-01-27T04:52:27;103663.50;;;-0.25;100.00
71716;BME280;59568;52.128;5.434;2024-01-27T04:54:53;103666.34;;;-0.28;100.00
71716;BME280;59568;52.128;5.434;2024-01-27T04:57:20;103679.50;;;-0.31;100.00
71716;BME280;59568;52.128;5.434;2024-01-27T04:59:47;103671.66;;;-0.30;100.00
71716;BME280;59568;52.128;5.434;2024-01-27T05:02:15;103669.75;;;-0.28;100.00
71716;BME280;59568;52.128;5.434;2024-01-27T05:04:42;103669.63;;;-0.26;100.00
71716;BME280;59568;52.128;5.434;2024-01-27T05:07:09;103667.06;;;-0.26;100.00
71716;BME280;59568;52.128;5.434;2024-01-27T05:09:36;103669.44;;;-0.25;100.00
71716;BME280;59568;52.128;5.434;2024-01-27T05:12:03;103665.16;;;-0.24;100.00
71716;BME280;59568;52.128;5.434;2024-01-27T05:14:30;103668.53;;;-0.24;100.00
71716;BME280;59568;52.128;5.434;2024-01-27T05:16:57;103667.41;;;-0.21;100.00
71716;BME280;59568;52.128;5.434;2024-01-27T05:19:24;103662.81;;;-0.17;100.00
71716;BME280;59568;52.128;5.434;2024-01-27T05:21:51;103656.03;;;-0.18;100.00
71716;BME280;59568;52.128;5.434;2024-01-27T05:24:18;103647.25;;;-0.16;100.00
71716;BME280;59568;52.128;5.434;2024-01-27T05:26:45;103647.91;;;-0.14;100.00
71716;BME280;59568;52.128;5.434;2024-01-27T05:29:12;103644.69;;;-0.16;100.00
71716;BME280;59568;52.128;5.434;2024-01-27T05:31:38;103638.88;;;-0.18;100.00
71716;BME280;59568;52.128;5.434;2024-01-27T05:34:05;103647.53;;;-0.19;100.00
71716;BME280;59568;52.128;5.434;2024-01-27T05:36:32;103644.00;;;-0.18;100.00
71716;BME280;59568;52.128;5.434;2024-01-27T05:38:59;103644.00;;;-0.18;100.00
71716;BME280;59568;52.128;5.434;2024-01-27T05:41:27;103644.00;;;-0.18;100.00
71716;BME280;59568;52.128;5.434;2024-01-27T05:43:56;103637.53;;;-0.22;100.00
71716;BME280;59568;52.128;5.434;2024-01-27T05:46:26;103643.63;;;-0.23;100.00
71716;BME280;59568;52.128;5.434;2024-01-27T05:48:53;103632.69;;;-0.25;100.00
71716;BME280;59568;52.128;5.434;2024-01-27T05:51:22;103648.38;;;-0.28;100.00
71716;BME280;59568;52.128;5.434;2024-01-27T05:53:52;103643.53;;;-0.31;100.00
71716;BME280;59568;52.128;5.434;2024-01-27T05:56:20;103647.88;;;-0.32;100.00
71716;BME280;59568;52.128;5.434;2024-01-27T05:58:47;103652.19;;;-0.32;100.00
71716;BME280;59568;52.128;5.434;2024-01-27T06:01:15;103652.03;;;-0.31;100.00
71716;BME280;59568;52.128;5.434;2024-01-27T06:03:42;103651.09;;;-0.30;100.00
71716;BME280;59568;52.128;5.434;2024-01-27T06:06:10;103641.63;;;-0.29;100.00
71716;BME280;59568;52.128;5.434;2024-01-27T06:08:37;103644.72;;;-0.26;100.00
71716;BME280;59568;52.128;5.434;2024-01-27T06:11:04;103646.31;;;-0.25;100.00
71716;BME280;59568;52.128;5.434;2024-01-27T06:13:35;103648.75;;;-0.23;100.00
71716;BME280;59568;52.128;5.434;2024-01-27T06:16:08;103644.59;;;-0.24;100.00
71716;BME280;59568;52.128;5.434;2024-01-27T06:18:36;103659.72;;;-0.21;100.00
71716;BME280;59568;52.128;5.434;2024-01-27T06:21:05;103652.28;;;-0.24;100.00
71716;BME280;59568;52.128;5.434;2024-01-27T06:23:33;103655.53;;;-0.22;100.00
71716;BME280;59568;52.128;5.434;2024-01-27T06:26:07;103651.06;;;-0.20;100.00
71716;BME280;59568;52.128;5.434;2024-01-27T06:28:35;103644.94;;;-0.19;100.00
71716;BME280;59568;52.128;5.434;2024-01-27T06:31:05;103646.72;;;-0.19;100.00
71716;BME280;59568;52.128;5.434;2024-01-27T06:33:32;103658.75;;;-0.20;100.00
71716;BME280;59568;52.128;5.434;2024-01-27T06:35:59;103652.66;;;-0.19;100.00
71716;BME280;59568;52.128;5.434;2024-01-27T06:38:29;103658.75;;;-0.20;100.00
71716;BME280;59568;52.128;5.434;2024-01-27T06:40:55;103653.75;;;-0.22;100.00
71716;BME280;59568;52.128;5.434;2024-01-27T06:43:22;103657.81;;;-0.19;100.00
71716;BME280;59568;52.128;5.434;2024-01-27T06:45:50;103650.41;;;-0.22;100.00
71716;BME280;59568;52.128;5.434;2024-01-27T06:48:17;103653.91;;;-0.23;100.00
71716;BME280;59568;52.128;5.434;2024-01-27T06:50:44;103653.22;;;-0.25;100.00
71716;BME280;59568;52.128;5.434;2024-01-27T06:53:11;103657.84;;;-0.29;100.00
71716;BME280;59568;52.128;5.434;2024-01-27T06:55:38;103664.09;;;-0.31;100.00
71716;BME280;59568;52.128;5.434;2024-01-27T06:58:09;103658.53;;;-0.36;100.00
71716;BME280;59568;52.128;5.434;2024-01-27T07:00:36;103658.84;;;-0.39;100.00
71716;BME280;59568;52.128;5.434;2024-01-27T07:03:04;103661.13;;;-0.36;100.00
71716;BME280;59568;52.128;5.434;2024-01-27T07:05:31;103667.34;;;-0.39;100.00
71716;BME280;59568;52.128;5.434;2024-01-27T07:08:00;103662.53;;;-0.42;100.00
71716;BME280;59568;52.128;5.434;2024-01-27T07:10:27;103666.81;;;-0.43;100.00
71716;BME280;59568;52.128;5.434;2024-01-27T07:12:53;103667.78;;;-0.44;100.00
71716;BME280;59568;52.128;5.434;2024-01-27T07:15:20;103678.34;;;-0.47;100.00
71716;BME280;59568;52.128;5.434;2024-01-27T07:17:48;103685.09;;;-0.46;100.00
71716;BME280;59568;52.128;5.434;2024-01-27T07:20:15;103687.69;;;-0.46;100.00
71716;BME280;59568;52.128;5.434;2024-01-27T07:22:42;103688.59;;;-0.47;100.00
71716;BME280;59568;52.128;5.434;2024-01-27T07:25:09;103696.19;;;-0.45;100.00
71716;BME280;59568;52.128;5.434;2024-01-27T07:27:36;103693.63;;;-0.45;100.00
71716;BME280;59568;52.128;5.434;2024-01-27T07:30:04;103693.63;;;-0.45;100.00
71716;BME280;59568;52.128;5.434;2024-01-27T07:32:32;103691.03;;;-0.45;100.00
71716;BME280;59568;52.128;5.434;2024-01-27T07:34:59;103692.81;;;-0.46;100.00
71716;BME280;59568;52.128;5.434;2024-01-27T07:37:26;103700.22;;;-0.43;100.00
71716;BME280;59568;52.128;5.434;2024-01-27T07:39:53;103701.19;;;-0.44;100.00
71716;BME280;59568;52.128;5.434;2024-01-27T07:42:20;103695.75;;;-0.41;100.00
71716;BME280;59568;52.128;5.434;2024-01-27T07:44:47;103706.28;;;-0.34;100.00
71716;BME280;59568;52.128;5.434;2024-01-27T07:47:13;103706.13;;;-0.32;100.00
71716;BME280;59568;52.128;5.434;2024-01-27T07:49:41;103712.78;;;-0.30;100.00
71716;BME280;59568;52.128;5.434;2024-01-27T07:52:08;103706.53;;;-0.27;100.00
71716;BME280;59568;52.128;5.434;2024-01-27T07:54:35;103708.66;;;-0.23;100.00
71716;BME280;59568;52.128;5.434;2024-01-27T07:57:06;103718.69;;;-0.19;100.00
71716;BME280;59568;52.128;5.434;2024-01-27T07:59:33;103711.63;;;-0.17;100.00
71716;BME280;59568;52.128;5.434;2024-01-27T08:02:00;103711.06;;;-0.11;100.00
71716;BME280;59568;52.128;5.434;2024-01-27T08:04:27;103707.13;;;-0.06;100.00
71716;BME280;59568;52.128;5.434;2024-01-27T08:06:54;103716.03;;;0.00;100.00
71716;BME280;59568;52.128;5.434;2024-01-27T08:09:21;103718.03;;;0.06;100.00
71716;BME280;59568;52.128;5.434;2024-01-27T08:11:48;103717.28;;;0.14;100.00
71716;BME280;59568;52.128;5.434;2024-01-27T08:14:18;103711.28;;;0.23;100.00
71716;BME280;59568;52.128;5.434;2024-01-27T08:16:46;103708.66;;;0.33;100.00
71716;BME280;59568;52.128;5.434;2024-01-27T08:19:14;103707.75;;;0.42;100.00
71716;BME280;59568;52.128;5.434;2024-01-27T08:21:47;103717.03;;;0.53;100.00
71716;BME280;59568;52.128;5.434;2024-01-27T08:24:15;103715.22;;;0.63;100.00
71716;BME280;59568;52.128;5.434;2024-01-27T08:26:42;103719.31;;;0.74;100.00
71716;BME280;59568;52.128;5.434;2024-01-27T08:29:09;103715.84;;;0.83;100.00
71716;BME280;59568;52.128;5.434;2024-01-27T08:31:36;103715.94;;;0.91;100.00
71716;BME280;59568;52.128;5.434;2024-01-27T08:34:05;103718.56;;;0.99;100.00
71716;BME280;59568;52.128;5.434;2024-01-27T08:36:34;103710.22;;;1.06;100.00
71716;BME280;59568;52.128;5.434;2024-01-27T08:39:01;103721.69;;;1.11;100.00
71716;BME280;59568;52.128;5.434;2024-01-27T08:41:28;103720.78;;;1.20;100.00
71716;BME280;59568;52.128;5.434;2024-01-27T08:43:55;103716.50;;;1.29;100.00
71716;BME280;59568;52.128;5.434;2024-01-27T08:46:22;103710.44;;;1.38;100.00
71716;BME280;59568;52.128;5.434;2024-01-27T08:48:49;103717.91;;;1.50;100.00
71716;BME280;59568;52.128;5.434;2024-01-27T08:51:17;103715.06;;;1.61;100.00
71716;BME280;59568;52.128;5.434;2024-01-27T08:53:44;103712.22;;;1.72;100.00
71716;BME280;59568;52.128;5.434;2024-01-27T08:56:18;103711.28;;;1.82;100.00
71716;BME280;59568;52.128;5.434;2024-01-27T08:58:45;103716.00;;;1.94;100.00
71716;BME280;59568;52.128;5.434;2024-01-27T09:01:16;103720.88;;;2.06;100.00
71716;BME280;59568;52.128;5.434;2024-01-27T09:03:43;103728.00;;;2.12;100.00
71716;BME280;59568;52.128;5.434;2024-01-27T09:06:11;103732.19;;;2.21;100.00
71716;BME280;59568;52.128;5.434;2024-01-27T09:08:38;103730.63;;;2.28;100.00
71716;BME280;59568;52.128;5.434;2024-01-27T09:11:05;103729.97;;;2.34;100.00
71716;BME280;59568;52.128;5.434;2024-01-27T09:13:33;103729.34;;;2.32;100.00
71716;BME280;59568;52.128;5.434;2024-01-27T09:16:00;103724.47;;;2.29;100.00
71716;BME280;59568;52.128;5.434;2024-01-27T09:18:27;103729.81;;;2.28;100.00
71716;BME280;59568;52.128;5.434;2024-01-27T09:20:57;103730.63;;;2.28;100.00
71716;BME280;59568;52.128;5.434;2024-01-27T09:23:24;103739.16;;;2.29;100.00
71716;BME280;59568;52.128;5.434;2024-01-27T09:25:52;103740.44;;;2.25;100.00
71716;BME280;59568;52.128;5.434;2024-01-27T09:28:20;103740.13;;;2.19;100.00
71716;BME280;59568;52.128;5.434;2024-01-27T09:30:47;103737.34;;;2.21;100.00
71716;BME280;59568;52.128;5.434;2024-01-27T09:33:14;103739.31;;;2.27;100.00
71716;BME280;59568;52.128;5.434;2024-01-27T09:35:41;103748.84;;;2.35;100.00
71716;BME280;59568;52.128;5.434;2024-01-27T09:38:08;103743.88;;;2.42;100.00
71716;BME280;59568;52.128;5.434;2024-01-27T09:40:38;103753.56;;;2.48;100.00
71716;BME280;59568;52.128;5.434;2024-01-27T09:43:05;103755.50;;;2.54;100.00
71716;BME280;59568;52.128;5.434;2024-01-27T09:45:34;103763.91;;;2.56;100.00
71716;BME280;59568;52.128;5.434;2024-01-27T09:48:03;103772.94;;;2.60;100.00
71716;BME280;59568;52.128;5.434;2024-01-27T09:50:32;103774.72;;;2.68;100.00
71716;BME280;59568;52.128;5.434;2024-01-27T09:52:59;103773.91;;;2.75;100.00
71716;BME280;59568;52.128;5.434;2024-01-27T09:55:27;103776.69;;;2.82;100.00
71716;BME280;59568;52.128;5.434;2024-01-27T09:57:54;103779.25;;;2.90;100.00
71716;BME280;59568;52.128;5.434;2024-01-27T10:00:22;103780.41;;;2.96;100.00
71716;BME280;59568;52.128;5.434;2024-01-27T10:02:50;103786.69;;;3.02;100.00
71716;BME280;59568;52.128;5.434;2024-01-27T10:05:18;103796.06;;;3.11;100.00
71716;BME280;59568;52.128;5.434;2024-01-27T10:07:45;103793.97;;;3.14;100.00
71716;BME280;59568;52.128;5.434;2024-01-27T10:10:12;103796.53;;;3.23;100.00
71716;BME280;59568;52.128;5.434;2024-01-27T10:12:42;103792.97;;;3.32;100.00
71716;BME280;59568;52.128;5.434;2024-01-27T10:15:22;103789.91;;;3.36;100.00
71716;BME280;59568;52.128;5.434;2024-01-27T10:17:50;103784.41;;;3.39;100.00
71716;BME280;59568;52.128;5.434;2024-01-27T10:20:17;103793.28;;;3.45;100.00
71716;BME280;59568;52.128;5.434;2024-01-27T10:22:46;103794.25;;;3.52;100.00
71716;BME280;59568;52.128;5.434;2024-01-27T10:25:13;103792.59;;;3.59;100.00
71716;BME280;59568;52.128;5.434;2024-01-27T10:27:41;103789.34;;;3.66;100.00
71716;BME280;59568;52.128;5.434;2024-01-27T10:30:16;103795.00;;;3.69;100.00
71716;BME280;59568;52.128;5.434;2024-01-27T10:32:54;103796.91;;;3.75;100.00
71716;BME280;59568;52.128;5.434;2024-01-27T10:35:23;103804.81;;;3.82;100.00
71716;BME280;59568;52.128;5.434;2024-01-27T10:37:53;103814.34;;;3.90;100.00
71716;BME280;59568;52.128;5.434;2024-01-27T10:40:25;103807.06;;;3.93;100.00
71716;BME280;59568;52.128;5.434;2024-01-27T10:43:07;103812.56;;;3.98;100.00
71716;BME280;59568;52.128;5.434;2024-01-27T10:45:39;103806.88;;;4.03;100.00
71716;BME280;59568;52.128;5.434;2024-01-27T10:48:08;103806.81;;;4.11;100.00
71716;BME280;59568;52.128;5.434;2024-01-27T10:50:40;103798.38;;;4.17;100.00
71716;BME280;59568;52.128;5.434;2024-01-27T10:53:24;103792.38;;;4.25;100.00
71716;BME280;59568;52.128;5.434;2024-01-27T10:55:53;103787.47;;;4.30;100.00
71716;BME280;59568;52.128;5.434;2024-01-27T10:58:24;103781.97;;;4.33;100.00
71716;BME280;59568;52.128;5.434;2024-01-27T11:00:53;103769.94;;;4.40;100.00
71716;BME280;59568;52.128;5.434;2024-01-27T11:03:22;103778.00;;;4.46;100.00
71716;BME280;59568;52.128;5.434;2024-01-27T11:05:51;103770.19;;;4.54;100.00
71716;BME280;59568;52.128;5.434;2024-01-27T11:08:20;103778.91;;;4.61;100.00
71716;BME280;59568;52.128;5.434;2024-01-27T11:10:51;103773.03;;;4.67;100.00
71716;BME280;59568;52.128;5.434;2024-01-27T11:13:18;103775.72;;;4.74;100.00
71716;BME280;59568;52.128;5.434;2024-01-27T11:15:54;103759.66;;;4.78;100.00
71716;BME280;59568;52.128;5.434;2024-01-27T11:18:21;103769.31;;;4.85;100.00
71716;BME280;59568;52.128;5.434;2024-01-27T11:20:53;103773.53;;;4.86;100.00
71716;BME280;59568;52.128;5.434;2024-01-27T11:23:20;103773.47;;;4.94;100.00
71716;BME280;59568;52.128;5.434;2024-01-27T11:25:47;103771.16;;;4.99;100.00
71716;BME280;59568;52.128;5.434;2024-01-27T11:28:16;103771.09;;;5.07;100.00
71716;BME280;59568;52.128;5.434;2024-01-27T11:30:47;103761.16;;;5.11;100.00
71716;BME280;59568;52.128;5.434;2024-01-27T11:33:14;103754.63;;;5.15;100.00
71716;BME280;59568;52.128;5.434;2024-01-27T11:35:42;103755.88;;;5.19;100.00
71716;BME280;59568;52.128;5.434;2024-01-27T11:38:09;103748.41;;;5.24;100.00
71716;BME280;59568;52.128;5.434;2024-01-27T11:40:48;103755.75;;;5.35;100.00
71716;BME280;59568;52.128;5.434;2024-01-27T11:43:16;103750.66;;;5.42;100.00
71716;BME280;59568;52.128;5.434;2024-01-27T11:45:43;103738.75;;;5.48;100.00
71716;BME280;59568;52.128;5.434;2024-01-27T11:48:22;103737.41;;;5.52;100.00
71716;BME280;59568;52.128;5.434;2024-01-27T11:51:04;103739.47;;;5.56;100.00
71716;BME280;59568;52.128;5.434;2024-01-27T11:53:33;103731.75;;;5.63;100.00
71716;BME280;59568;52.128;5.434;2024-01-27T11:56:00;103731.66;;;5.71;100.00
71716;BME280;59568;52.128;5.434;2024-01-27T11:58:28;103727.53;;;5.77;100.00
71716;BME280;59568;52.128;5.434;2024-01-27T12:00:57;103713.44;;;5.79;100.00
71716;BME280;59568;52.128;5.434;2024-01-27T12:03:25;103731.66;;;5.86;100.00
71716;BME280;59568;52.128;5.434;2024-01-27T12:05:52;103726.09;;;5.89;100.00
71716;BME280;59568;52.128;5.434;2024-01-27T12:08:20;103711.75;;;5.93;100.00
71716;BME280;59568;52.128;5.434;2024-01-27T12:10:47;103723.06;;;6.00;100.00
71716;BME280;59568;52.128;5.434;2024-01-27T12:13:15;103728.13;;;6.09;100.00
71716;BME280;59568;52.128;5.434;2024-01-27T12:15:42;103724.38;;;6.11;100.00
71716;BME280;59568;52.128;5.434;2024-01-27T12:18:10;103715.66;;;6.19;100.00
71716;BME280;59568;52.128;5.434;2024-01-27T12:20:39;103724.13;;;6.28;100.00
71716;BME280;59568;52.128;5.434;2024-01-27T12:23:06;103714.56;;;6.28;100.00
71716;BME280;59568;52.128;5.434;2024-01-27T12:25:34;103717.34;;;6.27;100.00
71716;BME280;59568;52.128;5.434;2024-01-27T12:28:05;103703.78;;;6.31;100.00
71716;BME280;59568;52.128;5.434;2024-01-27T12:30:34;103707.63;;;6.35;100.00
71716;BME280;59568;52.128;5.434;2024-01-27T12:33:01;103709.69;;;6.40;100.00
71716;BME280;59568;52.128;5.434;2024-01-27T12:35:36;103705.50;;;6.46;100.00
71716;BME280;59568;52.128;5.434;2024-01-27T12:38:05;103705.94;;;6.49;100.00
71716;BME280;59568;52.128;5.434;2024-01-27T12:40:32;103707.56;;;6.50;100.00
71716;BME280;59568;52.128;5.434;2024-01-27T12:42:59;103709.97;;;6.52;100.00
71716;BME280;59568;52.128;5.434;2024-01-27T12:45:26;103708.94;;;6.46;100.00
71716;BME280;59568;52.128;5.434;2024-01-27T12:47:56;103721.94;;;6.46;100.00